Chippewa Falls, WI (54729)

12:21 AM CDT on March 30, 2017 (GMT -0500)
Lafayette | | Change Station

Elev 928 ft 44.92 °N, 91.32 °W | Updated 1 minute ago

Rain
Rain
38.3 °F
Feels Like 38 °F
N
2.7
Wind Variable Wind from South

Today
High -- | Low -- °F
--% Chance of Precip.
Yesterday
High -- | Low -- °F
Precip. -- in
Pressure 30.11 in
Visibility 10.0 miles
Clouds Mostly Cloudy 1400 ft
Overcast 6500 ft
Windchill 38 °F
Dew Point 36 °F
Humidity 93%
Rainfall 0.00 in
Snow Depth Not available.
6:49 AM 7:31 PM
Waxing Crescent, 6% visible
METAR KEAU 300456Z AUTO 09008KT 10SM BKN014 OVC065 04/03 A3009 RMK AO2 SLP196 T00440028
Pressure 30.11 in
Visibility 10.0 miles
Clouds Mostly Cloudy 1400 ft
Overcast 6500 ft
Windchill 38 °F
Dew Point 36 °F
Humidity 93%
Rainfall 0.00 in
Snow Depth Not available.
6:49 AM 7:31 PM
Waxing Crescent, 6% visible
METAR KEAU 300456Z AUTO 09008KT 10SM BKN014 OVC065 04/03 A3009 RMK AO2 SLP196 T00440028

Get Severe Weather Alerts

Thanks for signing up!

Be on the lookout for a verification email in your inbox.

You'll start receiving the daily forecast at 8 AM.

×

10-Day Weather Forecast

Almanac

Astronomy

Mar. 30, 2017 Rise Set
Actual Time
Civil Twilight
Nautical Twilight
Astronomical Twilight
Moon
Length of Visible Light
Length of Day
Tomorrow will be .
, % of the Moon is Illuminated

Today's Extremes

State Highs State Lows

Community

WunderPhotos

Upload Photos

1,962,540 photos uploaded!

WunderBlog® & News

Nearby

Air Quality

  Air Quality AQ Index Pollutant
Not available.

Snow Depth

Station Depth Elevation

Earthquake Activity

City Distance Mag. Time & Date
Minimum magnitude displayed is 2.5.

Earthquake Activity

City Distance Mag. Time & Date
Minimum magnitude displayed is 2.5.

Coastal Water Temperatures

Place Temperature

Stations

Nearby Weather Stations

Station Location Temp. Windchill Dew Point Humidity Wind Precip. Elev Updated Type
                   

Watches & Warnings

There are currently no watches in effect.